sensor_id;sensor_type;location;lat;lon;timestamp;noise_LAeq;noise_LA_min;noise_LA_max;noise_LA01;noise_LA95
40465;Laerm;30489;48.982;8.394;2023-08-21T00:01:11;40.48;38.52;42.22;;
40465;Laerm;30489;48.982;8.394;2023-08-21T00:03:22;40.41;38.52;41.75;;
40465;Laerm;30489;48.982;8.394;2023-08-21T00:05:32;40.38;37.88;41.75;;
40465;Laerm;30489;48.982;8.394;2023-08-21T00:07:42;40.39;38.52;48.92;;
40465;Laerm;30489;48.982;8.394;2023-08-21T00:09:53;40.29;38.21;47.18;;
40465;Laerm;30489;48.982;8.394;2023-08-21T00:12:03;40.24;38.37;41.53;;
40465;Laerm;30489;48.982;8.394;2023-08-21T00:14:14;40.25;38.52;42.03;;
40465;Laerm;30489;48.982;8.394;2023-08-21T00:16:24;40.30;38.05;43.04;;
40465;Laerm;30489;48.982;8.394;2023-08-21T00:18:36;40.30;38.52;42.35;;
40465;Laerm;30489;48.982;8.394;2023-08-21T00:20:46;40.23;38.21;41.61;;
40465;Laerm;30489;48.982;8.394;2023-08-21T00:22:57;40.30;38.52;41.89;;
40465;Laerm;30489;48.982;8.394;2023-08-21T00:25:07;40.24;38.37;41.96;;
40465;Laerm;30489;48.982;8.394;2023-08-21T00:27:17;40.25;38.37;47.12;;
40465;Laerm;30489;48.982;8.394;2023-08-21T00:29:27;40.23;38.52;42.03;;
40465;Laerm;30489;48.982;8.394;2023-08-21T00:31:37;40.27;38.52;41.89;;
40465;Laerm;30489;48.982;8.394;2023-08-21T00:33:48;40.19;38.05;41.68;;
40465;Laerm;30489;48.982;8.394;2023-08-21T00:35:58;40.23;38.52;41.82;;
40465;Laerm;30489;48.982;8.394;2023-08-21T00:38:08;40.19;38.21;41.61;;
40465;Laerm;30489;48.982;8.394;2023-08-21T00:40:18;40.24;38.52;42.03;;
40465;Laerm;30489;48.982;8.394;2023-08-21T00:42:29;40.30;38.52;52.19;;
40465;Laerm;30489;48.982;8.394;2023-08-21T00:44:39;40.32;38.67;47.24;;
40465;Laerm;30489;48.982;8.394;2023-08-21T00:46:49;40.39;38.52;43.24;;
40465;Laerm;30489;48.982;8.394;2023-08-21T00:48:59;40.28;38.37;41.68;;
40465;Laerm;30489;48.982;8.394;2023-08-21T00:51:10;40.31;38.52;43.24;;
40465;Laerm;30489;48.982;8.394;2023-08-21T00:53:21;40.33;38.37;44.73;;
40465;Laerm;30489;48.982;8.394;2023-08-21T00:55:32;40.32;38.52;43.04;;
40465;Laerm;30489;48.982;8.394;2023-08-21T00:57:42;40.31;38.37;43.19;;
40465;Laerm;30489;48.982;8.394;2023-08-21T00:59:53;40.27;38.37;41.96;;
40465;Laerm;30489;48.982;8.394;2023-08-21T01:02:04;40.25;38.37;42.47;;
40465;Laerm;30489;48.982;8.394;2023-08-21T01:04:14;40.25;38.67;43.39;;
40465;Laerm;30489;48.982;8.394;2023-08-21T01:06:24;40.26;38.21;41.68;;
40465;Laerm;30489;48.982;8.394;2023-08-21T01:15:24;40.26;38.37;45.14;;
40465;Laerm;30489;48.982;8.394;2023-08-21T01:17:36;40.27;38.21;46.57;;
40465;Laerm;30489;48.982;8.394;2023-08-21T01:19:47;40.22;38.21;42.00;;
40465;Laerm;30489;48.982;8.394;2023-08-21T01:21:58;40.26;38.52;41.61;;
40465;Laerm;30489;48.982;8.394;2023-08-21T01:24:09;40.22;38.52;41.61;;
40465;Laerm;30489;48.982;8.394;2023-08-21T01:26:19;40.25;38.21;41.61;;
40465;Laerm;30489;48.982;8.394;2023-08-21T01:28:30;40.22;38.21;41.75;;
40465;Laerm;30489;48.982;8.394;2023-08-21T01:30:41;40.19;37.70;44.54;;
40465;Laerm;30489;48.982;8.394;2023-08-21T01:32:55;40.15;37.70;41.82;;
40465;Laerm;30489;48.982;8.394;2023-08-21T01:35:09;40.19;38.37;41.68;;
40465;Laerm;30489;48.982;8.394;2023-08-21T01:37:19;40.19;38.52;42.41;;
40465;Laerm;30489;48.982;8.394;2023-08-21T01:39:30;40.21;38.67;41.82;;
40465;Laerm;30489;48.982;8.394;2023-08-21T01:41:41;40.22;38.52;43.09;;
40465;Laerm;30489;48.982;8.394;2023-08-21T01:43:51;40.21;38.21;43.24;;
40465;Laerm;30489;48.982;8.394;2023-08-21T01:46:01;40.21;38.37;41.89;;
40465;Laerm;30489;48.982;8.394;2023-08-21T01:48:13;40.21;38.37;43.24;;
40465;Laerm;30489;48.982;8.394;2023-08-21T01:50:23;40.19;38.52;42.88;;
40465;Laerm;30489;48.982;8.394;2023-08-21T01:52:33;40.17;37.88;41.89;;
40465;Laerm;30489;48.982;8.394;2023-08-21T01:54:43;40.17;38.37;41.55;;
40465;Laerm;30489;48.982;8.394;2023-08-21T01:56:54;40.19;38.52;48.05;;
40465;Laerm;30489;48.982;8.394;2023-08-21T01:59:04;40.17;37.88;43.14;;
40465;Laerm;30489;48.982;8.394;2023-08-21T02:01:16;40.15;38.37;43.77;;
40465;Laerm;30489;48.982;8.394;2023-08-21T02:03:27;40.18;38.05;46.93;;
40465;Laerm;30489;48.982;8.394;2023-08-21T02:05:38;40.17;38.37;42.35;;
40465;Laerm;30489;48.982;8.394;2023-08-21T02:07:50;40.16;38.21;42.03;;
40465;Laerm;30489;48.982;8.394;2023-08-21T02:10:00;40.20;38.37;43.34;;
40465;Laerm;30489;48.982;8.394;2023-08-21T02:12:10;40.20;38.37;42.29;;
40465;Laerm;30489;48.982;8.394;2023-08-21T02:14:20;40.17;37.88;41.68;;
40465;Laerm;30489;48.982;8.394;2023-08-21T02:16:31;40.19;38.37;52.21;;
40465;Laerm;30489;48.982;8.394;2023-08-21T02:18:41;40.17;38.21;41.89;;
40465;Laerm;30489;48.982;8.394;2023-08-21T02:20:52;40.15;38.37;43.19;;
40465;Laerm;30489;48.982;8.394;2023-08-21T02:23:02;40.19;38.21;47.12;;
40465;Laerm;30489;48.982;8.394;2023-08-21T02:25:12;40.19;37.70;46.33;;
40465;Laerm;30489;48.982;8.394;2023-08-21T02:27:22;40.16;38.05;41.53;;
40465;Laerm;30489;48.982;8.394;2023-08-21T02:29:32;40.16;38.21;43.39;;
40465;Laerm;30489;48.982;8.394;2023-08-21T02:31:43;40.12;38.37;41.68;;
40465;Laerm;30489;48.982;8.394;2023-08-21T02:33:53;40.19;37.88;43.49;;
40465;Laerm;30489;48.982;8.394;2023-08-21T02:36:03;40.19;38.37;41.89;;
40465;Laerm;30489;48.982;8.394;2023-08-21T02:38:13;40.17;38.37;42.71;;
40465;Laerm;30489;48.982;8.394;2023-08-21T02:40:24;40.13;38.05;42.65;;
40465;Laerm;30489;48.982;8.394;2023-08-21T02:42:34;40.13;38.37;41.46;;
40465;Laerm;30489;48.982;8.394;2023-08-21T02:44:45;40.14;38.52;41.61;;
40465;Laerm;30489;48.982;8.394;2023-08-21T02:46:55;40.16;38.37;45.30;;
40465;Laerm;30489;48.982;8.394;2023-08-21T02:49:05;40.14;38.21;42.76;;
40465;Laerm;30489;48.982;8.394;2023-08-21T02:51:15;40.16;38.37;46.07;;
40465;Laerm;30489;48.982;8.394;2023-08-21T02:53:26;40.15;38.05;45.17;;
40465;Laerm;30489;48.982;8.394;2023-08-21T02:55:36;40.12;38.37;47.50;;
40465;Laerm;30489;48.982;8.394;2023-08-21T02:57:46;40.14;38.37;50.45;;
40465;Laerm;30489;48.982;8.394;2023-08-21T02:59:56;40.13;38.21;43.68;;
40465;Laerm;30489;48.982;8.394;2023-08-21T03:02:07;40.13;38.37;41.61;;
40465;Laerm;30489;48.982;8.394;2023-08-21T03:04:17;40.12;38.21;41.82;;
40465;Laerm;30489;48.982;8.394;2023-08-21T03:06:27;40.10;38.21;42.59;;
40465;Laerm;30489;48.982;8.394;2023-08-21T03:08:37;40.14;38.05;41.75;;
40465;Laerm;30489;48.982;8.394;2023-08-21T03:10:47;40.09;37.88;45.83;;
40465;Laerm;30489;48.982;8.394;2023-08-21T03:12:58;40.11;38.05;47.57;;
40465;Laerm;30489;48.982;8.394;2023-08-21T03:15:08;40.15;38.37;51.02;;
40465;Laerm;30489;48.982;8.394;2023-08-21T03:17:18;40.08;38.21;42.53;;
40465;Laerm;30489;48.982;8.394;2023-08-21T03:19:28;40.11;38.05;42.76;;
40465;Laerm;30489;48.982;8.394;2023-08-21T03:21:38;40.12;38.21;46.10;;
40465;Laerm;30489;48.982;8.394;2023-08-21T03:23:56;40.10;38.21;44.19;;
40465;Laerm;30489;48.982;8.394;2023-08-21T03:26:06;40.10;38.21;41.46;;
40465;Laerm;30489;48.982;8.394;2023-08-21T03:28:16;40.10;38.37;44.89;;
40465;Laerm;30489;48.982;8.394;2023-08-21T03:30:27;40.05;38.05;43.86;;
40465;Laerm;30489;48.982;8.394;2023-08-21T03:32:37;40.09;38.21;41.82;;
40465;Laerm;30489;48.982;8.394;2023-08-21T03:34:47;40.12;38.05;48.10;;
40465;Laerm;30489;48.982;8.394;2023-08-21T03:36:57;40.08;38.21;44.83;;
40465;Laerm;30489;48.982;8.394;2023-08-21T03:39:07;40.08;38.21;42.53;;
40465;Laerm;30489;48.982;8.394;2023-08-21T03:41:18;40.06;38.05;41.61;;
40465;Laerm;30489;48.982;8.394;2023-08-21T03:43:28;40.11;38.05;41.75;;
40465;Laerm;30489;48.982;8.394;2023-08-21T03:45:38;40.10;38.05;41.89;;
40465;Laerm;30489;48.982;8.394;2023-08-21T03:47:48;40.03;37.88;41.68;;
40465;Laerm;30489;48.982;8.394;2023-08-21T03:49:58;40.02;37.87;41.46;;
40465;Laerm;30489;48.982;8.394;2023-08-21T03:52:08;40.01;38.37;43.68;;
40465;Laerm;30489;48.982;8.394;2023-08-21T03:54:19;40.05;38.05;42.29;;
40465;Laerm;30489;48.982;8.394;2023-08-21T03:56:29;40.06;38.37;41.96;;
40465;Laerm;30489;48.982;8.394;2023-08-21T03:58:39;40.05;38.21;41.61;;
40465;Laerm;30489;48.982;8.394;2023-08-21T04:00:49;40.04;38.05;41.68;;
40465;Laerm;30489;48.982;8.394;2023-08-21T04:02:59;39.99;38.05;41.82;;
40465;Laerm;30489;48.982;8.394;2023-08-21T04:05:09;39.99;37.88;41.61;;
40465;Laerm;30489;48.982;8.394;2023-08-21T04:07:21;40.02;38.21;42.16;;
40465;Laerm;30489;48.982;8.394;2023-08-21T04:09:31;39.98;38.05;42.29;;
40465;Laerm;30489;48.982;8.394;2023-08-21T04:11:41;39.98;38.18;41.68;;
40465;Laerm;30489;48.982;8.394;2023-08-21T04:13:51;40.02;38.05;43.00;;
40465;Laerm;30489;48.982;8.394;2023-08-21T04:16:01;40.02;38.37;41.75;;
40465;Laerm;30489;48.982;8.394;2023-08-21T04:18:12;40.03;37.88;41.61;;
40465;Laerm;30489;48.982;8.394;2023-08-21T04:20:22;40.02;38.21;41.55;;
40465;Laerm;30489;48.982;8.394;2023-08-21T04:22:32;40.00;38.05;41.68;;
40465;Laerm;30489;48.982;8.394;2023-08-21T04:24:42;39.97;37.32;41.61;;
40465;Laerm;30489;48.982;8.394;2023-08-21T04:26:53;40.03;37.88;41.82;;
40465;Laerm;30489;48.982;8.394;2023-08-21T04:29:03;39.99;38.21;42.53;;
40465;Laerm;30489;48.982;8.394;2023-08-21T04:31:13;40.01;38.21;41.61;;
40465;Laerm;30489;48.982;8.394;2023-08-21T04:33:24;39.98;38.05;41.53;;
40465;Laerm;30489;48.982;8.394;2023-08-21T04:35:38;40.00;38.05;41.46;;
40465;Laerm;30489;48.982;8.394;2023-08-21T04:37:48;39.98;37.70;41.75;;
40465;Laerm;30489;48.982;8.394;2023-08-21T04:39:58;39.99;37.52;41.53;;
40465;Laerm;30489;48.982;8.394;2023-08-21T04:42:09;40.02;38.05;42.98;;
40465;Laerm;30489;48.982;8.394;2023-08-21T04:44:19;40.02;38.21;43.19;;
40465;Laerm;30489;48.982;8.394;2023-08-21T04:46:29;39.98;38.05;41.61;;
40465;Laerm;30489;48.982;8.394;2023-08-21T04:48:39;40.03;37.88;41.96;;
40465;Laerm;30489;48.982;8.394;2023-08-21T04:50:49;40.03;38.05;41.68;;
40465;Laerm;30489;48.982;8.394;2023-08-21T04:53:00;40.03;37.88;42.71;;
40465;Laerm;30489;48.982;8.394;2023-08-21T04:55:10;40.04;38.05;42.47;;
40465;Laerm;30489;48.982;8.394;2023-08-21T04:57:20;40.06;37.70;41.61;;
40465;Laerm;30489;48.982;8.394;2023-08-21T04:59:34;40.05;38.05;41.61;;
40465;Laerm;30489;48.982;8.394;2023-08-21T05:01:44;40.00;37.88;42.03;;
40465;Laerm;30489;48.982;8.394;2023-08-21T05:03:55;40.02;38.05;42.41;;
40465;Laerm;30489;48.982;8.394;2023-08-21T05:06:05;40.03;38.05;42.47;;
40465;Laerm;30489;48.982;8.394;2023-08-21T05:08:15;40.02;37.88;44.23;;
40465;Laerm;30489;48.982;8.394;2023-08-21T05:10:25;40.02;38.21;42.71;;
40465;Laerm;30489;48.982;8.394;2023-08-21T05:12:35;40.02;38.21;42.03;;
40465;Laerm;30489;48.982;8.394;2023-08-21T05:14:46;40.01;37.88;41.68;;
40465;Laerm;30489;48.982;8.394;2023-08-21T05:16:56;39.98;38.05;42.93;;
40465;Laerm;30489;48.982;8.394;2023-08-21T05:19:06;39.98;38.21;42.35;;
40465;Laerm;30489;48.982;8.394;2023-08-21T05:21:16;40.00;38.21;41.46;;
40465;Laerm;30489;48.982;8.394;2023-08-21T05:23:26;40.04;37.52;41.61;;
40465;Laerm;30489;48.982;8.394;2023-08-21T05:25:37;40.00;37.88;41.68;;
40465;Laerm;30489;48.982;8.394;2023-08-21T05:27:47;39.98;38.21;44.23;;
40465;Laerm;30489;48.982;8.394;2023-08-21T05:29:57;39.98;38.05;41.61;;
40465;Laerm;30489;48.982;8.394;2023-08-21T05:32:07;39.97;37.88;41.38;;
40465;Laerm;30489;48.982;8.394;2023-08-21T05:34:17;40.00;38.05;41.38;;
40465;Laerm;30489;48.982;8.394;2023-08-21T05:36:28;40.01;38.05;41.89;;
40465;Laerm;30489;48.982;8.394;2023-08-21T05:38:38;39.99;37.70;43.19;;
40465;Laerm;30489;48.982;8.394;2023-08-21T05:40:48;39.98;38.05;41.89;;
40465;Laerm;30489;48.982;8.394;2023-08-21T05:42:59;40.01;37.88;42.22;;
40465;Laerm;30489;48.982;8.394;2023-08-21T05:45:09;40.01;38.05;41.68;;
40465;Laerm;30489;48.982;8.394;2023-08-21T05:47:19;40.03;37.88;41.61;;
40465;Laerm;30489;48.982;8.394;2023-08-21T05:49:29;40.00;38.05;41.61;;
40465;Laerm;30489;48.982;8.394;2023-08-21T05:51:39;40.01;38.05;41.53;;
40465;Laerm;30489;48.982;8.394;2023-08-21T05:53:50;39.99;38.05;41.61;;
40465;Laerm;30489;48.982;8.394;2023-08-21T05:56:00;39.97;37.88;41.53;;
40465;Laerm;30489;48.982;8.394;2023-08-21T05:58:10;40.03;38.05;41.55;;
40465;Laerm;30489;48.982;8.394;2023-08-21T06:00:20;40.20;38.21;41.53;;
40465;Laerm;30489;48.982;8.394;2023-08-21T06:02:30;40.16;38.37;42.09;;
40465;Laerm;30489;48.982;8.394;2023-08-21T06:04:41;40.09;38.37;41.53;;
40465;Laerm;30489;48.982;8.394;2023-08-21T06:06:51;40.11;38.37;41.53;;
40465;Laerm;30489;48.982;8.394;2023-08-21T06:09:01;40.10;38.37;41.61;;
40465;Laerm;30489;48.982;8.394;2023-08-21T06:11:13;40.10;38.32;41.82;;
40465;Laerm;30489;48.982;8.394;2023-08-21T06:13:24;40.13;38.05;41.82;;
40465;Laerm;30489;48.982;8.394;2023-08-21T06:15:35;40.14;38.37;41.89;;
40465;Laerm;30489;48.982;8.394;2023-08-21T06:17:45;40.14;38.21;42.16;;
40465;Laerm;30489;48.982;8.394;2023-08-21T06:19:55;40.13;38.21;41.75;;
40465;Laerm;30489;48.982;8.394;2023-08-21T06:22:06;40.13;38.52;42.03;;
40465;Laerm;30489;48.982;8.394;2023-08-21T06:24:17;40.13;37.88;41.61;;
40465;Laerm;30489;48.982;8.394;2023-08-21T06:26:27;40.17;38.52;41.81;;
40465;Laerm;30489;48.982;8.394;2023-08-21T06:28:37;40.11;38.21;42.03;;
40465;Laerm;30489;48.982;8.394;2023-08-21T06:30:47;40.13;38.37;41.75;;
40465;Laerm;30489;48.982;8.394;2023-08-21T06:33:03;40.13;38.21;42.88;;
40465;Laerm;30489;48.982;8.394;2023-08-21T06:35:14;40.16;38.37;43.04;;
40465;Laerm;30489;48.982;8.394;2023-08-21T06:37:25;40.17;38.21;42.88;;
40465;Laerm;30489;48.982;8.394;2023-08-21T06:39:35;40.16;38.05;41.75;;
40465;Laerm;30489;48.982;8.394;2023-08-21T06:41:45;40.18;38.37;41.61;;
40465;Laerm;30489;48.982;8.394;2023-08-21T06:43:56;40.19;38.52;42.47;;
40465;Laerm;30489;48.982;8.394;2023-08-21T06:46:07;40.19;38.02;41.89;;
40465;Laerm;30489;48.982;8.394;2023-08-21T06:48:17;40.17;38.21;41.75;;
40465;Laerm;30489;48.982;8.394;2023-08-21T06:50:28;40.21;38.52;42.93;;
40465;Laerm;30489;48.982;8.394;2023-08-21T06:52:39;40.22;38.37;42.03;;
40465;Laerm;30489;48.982;8.394;2023-08-21T06:54:49;40.21;38.52;41.75;;
40465;Laerm;30489;48.982;8.394;2023-08-21T06:56:59;40.19;38.52;42.58;;
40465;Laerm;30489;48.982;8.394;2023-08-21T06:59:09;40.21;38.37;41.61;;
40465;Laerm;30489;48.982;8.394;2023-08-21T07:01:19;40.19;38.37;42.22;;
40465;Laerm;30489;48.982;8.394;2023-08-21T07:03:30;40.21;38.67;41.89;;
40465;Laerm;30489;48.982;8.394;2023-08-21T07:05:40;40.23;38.21;41.68;;
40465;Laerm;30489;48.982;8.394;2023-08-21T07:07:50;40.23;38.37;41.89;;
40465;Laerm;30489;48.982;8.394;2023-08-21T07:10:00;40.22;38.37;41.96;;
40465;Laerm;30489;48.982;8.394;2023-08-21T07:12:11;40.22;38.37;41.96;;
40465;Laerm;30489;48.982;8.394;2023-08-21T07:14:21;40.23;38.21;43.29;;
40465;Laerm;30489;48.982;8.394;2023-08-21T07:16:31;40.23;38.52;41.82;;
40465;Laerm;30489;48.982;8.394;2023-08-21T07:18:41;40.25;38.32;41.89;;
40465;Laerm;30489;48.982;8.394;2023-08-21T07:20:52;40.24;38.05;41.68;;
40465;Laerm;30489;48.982;8.394;2023-08-21T07:23:03;40.26;38.52;41.61;;
40465;Laerm;30489;48.982;8.394;2023-08-21T07:25:13;40.26;37.88;41.68;;
40465;Laerm;30489;48.982;8.394;2023-08-21T07:27:23;40.28;38.21;41.89;;
40465;Laerm;30489;48.982;8.394;2023-08-21T07:29:33;40.25;38.67;41.68;;
40465;Laerm;30489;48.982;8.394;2023-08-21T07:31:44;40.29;38.52;41.75;;
40465;Laerm;30489;48.982;8.394;2023-08-21T07:33:54;40.29;38.37;41.68;;
40465;Laerm;30489;48.982;8.394;2023-08-21T07:36:04;40.30;38.37;41.75;;
40465;Laerm;30489;48.982;8.394;2023-08-21T07:38:15;40.31;38.60;42.03;;
40465;Laerm;30489;48.982;8.394;2023-08-21T07:40:25;40.32;38.67;42.22;;
40465;Laerm;30489;48.982;8.394;2023-08-21T07:42:35;40.32;38.52;41.96;;
40465;Laerm;30489;48.982;8.394;2023-08-21T07:44:45;40.31;38.67;41.68;;
40465;Laerm;30489;48.982;8.394;2023-08-21T07:46:56;40.30;38.60;41.68;;
40465;Laerm;30489;48.982;8.394;2023-08-21T07:49:06;40.31;38.37;41.68;;
40465;Laerm;30489;48.982;8.394;2023-08-21T07:51:17;40.33;38.37;41.96;;
40465;Laerm;30489;48.982;8.394;2023-08-21T07:53:27;40.33;38.52;41.82;;
40465;Laerm;30489;48.982;8.394;2023-08-21T07:55:37;40.37;38.52;41.82;;
40465;Laerm;30489;48.982;8.394;2023-08-21T07:57:47;40.36;38.05;41.82;;
40465;Laerm;30489;48.982;8.394;2023-08-21T07:59:57;40.38;38.87;41.75;;
40465;Laerm;30489;48.982;8.394;2023-08-21T08:02:08;40.40;38.67;42.53;;
40465;Laerm;30489;48.982;8.394;2023-08-21T08:04:18;40.40;38.67;41.75;;
40465;Laerm;30489;48.982;8.394;2023-08-21T08:06:31;40.42;38.52;41.75;;
40465;Laerm;30489;48.982;8.394;2023-08-21T08:08:41;40.47;38.81;48.58;;
40465;Laerm;30489;48.982;8.394;2023-08-21T08:10:52;40.44;38.67;45.51;;
40465;Laerm;30489;48.982;8.394;2023-08-21T08:13:02;40.45;38.67;41.89;;
40465;Laerm;30489;48.982;8.394;2023-08-21T08:15:12;40.46;38.81;44.39;;
40465;Laerm;30489;48.982;8.394;2023-08-21T08:17:22;40.51;38.81;42.22;;
40465;Laerm;30489;48.982;8.394;2023-08-21T08:19:32;40.52;38.81;42.98;;
40465;Laerm;30489;48.982;8.394;2023-08-21T08:21:43;40.51;38.67;43.68;;
40465;Laerm;30489;48.982;8.394;2023-08-21T08:23:53;40.52;38.95;43.39;;
40465;Laerm;30489;48.982;8.394;2023-08-21T08:26:03;40.57;38.67;42.22;;
40465;Laerm;30489;48.982;8.394;2023-08-21T08:28:13;40.65;38.95;42.09;;
40465;Laerm;30489;48.982;8.394;2023-08-21T08:30:24;40.56;38.81;41.89;;
40465;Laerm;30489;48.982;8.394;2023-08-21T08:32:34;40.59;38.81;42.03;;
40465;Laerm;30489;48.982;8.394;2023-08-21T08:34:44;40.66;38.95;42.53;;
40465;Laerm;30489;48.982;8.394;2023-08-21T08:36:56;40.61;38.37;42.29;;
40465;Laerm;30489;48.982;8.394;2023-08-21T08:39:06;40.59;38.81;45.01;;
40465;Laerm;30489;48.982;8.394;2023-08-21T08:41:21;40.76;38.95;52.51;;
40465;Laerm;30489;48.982;8.394;2023-08-21T08:43:35;40.65;38.95;42.24;;
40465;Laerm;30489;48.982;8.394;2023-08-21T08:45:48;40.63;38.95;43.89;;
40465;Laerm;30489;48.982;8.394;2023-08-21T08:47:59;40.65;39.08;42.41;;
40465;Laerm;30489;48.982;8.394;2023-08-21T08:50:10;40.61;38.67;41.96;;
40465;Laerm;30489;48.982;8.394;2023-08-21T08:52:21;40.71;38.67;52.49;;
40465;Laerm;30489;48.982;8.394;2023-08-21T08:54:31;40.72;39.08;42.71;;
40465;Laerm;30489;48.982;8.394;2023-08-21T08:56:42;40.72;39.08;42.09;;
40465;Laerm;30489;48.982;8.394;2023-08-21T08:58:52;40.66;38.95;41.96;;
40465;Laerm;30489;48.982;8.394;2023-08-21T09:01:02;40.65;38.81;42.16;;
40465;Laerm;30489;48.982;8.394;2023-08-21T09:03:12;40.68;38.52;42.16;;
40465;Laerm;30489;48.982;8.394;2023-08-21T09:05:23;40.70;38.81;42.16;;
40465;Laerm;30489;48.982;8.394;2023-08-21T09:07:34;40.70;38.95;42.16;;
40465;Laerm;30489;48.982;8.394;2023-08-21T09:09:48;40.73;39.08;42.16;;
40465;Laerm;30489;48.982;8.394;2023-08-21T09:11:59;40.73;38.95;42.22;;
40465;Laerm;30489;48.982;8.394;2023-08-21T09:14:10;40.70;38.99;42.09;;
40465;Laerm;30489;48.982;8.394;2023-08-21T09:16:21;40.75;38.67;42.03;;
40465;Laerm;30489;48.982;8.394;2023-08-21T09:18:33;40.77;38.81;42.09;;
40465;Laerm;30489;48.982;8.394;2023-08-21T09:20:44;40.76;39.21;42.16;;
40465;Laerm;30489;48.982;8.394;2023-08-21T09:22:54;40.77;39.23;42.16;;
40465;Laerm;30489;48.982;8.394;2023-08-21T09:25:06;40.80;39.34;42.09;;
40465;Laerm;30489;48.982;8.394;2023-08-21T09:27:17;40.73;39.21;42.16;;
40465;Laerm;30489;48.982;8.394;2023-08-21T09:29:30;40.72;39.08;42.29;;
40465;Laerm;30489;48.982;8.394;2023-08-21T09:31:47;40.74;39.21;42.06;;
40465;Laerm;30489;48.982;8.394;2023-08-21T09:33:58;40.91;38.95;42.47;;
40465;Laerm;30489;48.982;8.394;2023-08-21T09:36:09;40.86;39.46;42.29;;
40465;Laerm;30489;48.982;8.394;2023-08-21T09:38:19;40.90;39.08;47.76;;
40465;Laerm;30489;48.982;8.394;2023-08-21T09:40:29;40.87;39.46;42.03;;
40465;Laerm;30489;48.982;8.394;2023-08-21T09:42:40;40.86;39.34;42.22;;
40465;Laerm;30489;48.982;8.394;2023-08-21T09:44:50;40.86;39.34;42.22;;
40465;Laerm;30489;48.982;8.394;2023-08-21T09:47:01;40.87;39.21;42.29;;
40465;Laerm;30489;48.982;8.394;2023-08-21T09:49:11;40.86;39.21;42.03;;
40465;Laerm;30489;48.982;8.394;2023-08-21T09:51:21;40.92;39.21;42.09;;
40465;Laerm;30489;48.982;8.394;2023-08-21T09:53:32;40.96;39.58;42.22;;
40465;Laerm;30489;48.982;8.394;2023-08-21T09:55:42;40.97;39.34;42.16;;
40465;Laerm;30489;48.982;8.394;2023-08-21T09:57:53;41.00;39.46;42.42;;
40465;Laerm;30489;48.982;8.394;2023-08-21T10:00:08;41.01;39.58;42.29;;
40465;Laerm;30489;48.982;8.394;2023-08-21T10:02:39;40.94;39.21;42.22;;
40465;Laerm;30489;48.982;8.394;2023-08-21T10:04:50;40.92;39.46;42.35;;
40465;Laerm;30489;48.982;8.394;2023-08-21T10:07:02;40.91;39.58;42.53;;
40465;Laerm;30489;48.982;8.394;2023-08-21T10:09:13;40.94;39.57;42.22;;
40465;Laerm;30489;48.982;8.394;2023-08-21T10:11:24;40.89;39.08;42.22;;
40465;Laerm;30489;48.982;8.394;2023-08-21T10:13:35;40.93;39.46;42.29;;
40465;Laerm;30489;48.982;8.394;2023-08-21T10:15:46;40.92;39.21;42.19;;
40465;Laerm;30489;48.982;8.394;2023-08-21T10:17:56;40.92;39.08;42.35;;
40465;Laerm;30489;48.982;8.394;2023-08-21T10:20:07;40.95;39.21;42.22;;
40465;Laerm;30489;48.982;8.394;2023-08-21T10:22:35;41.01;39.58;42.29;;
40465;Laerm;30489;48.982;8.394;2023-08-21T10:24:45;41.06;39.46;42.22;;
40465;Laerm;30489;48.982;8.394;2023-08-21T10:26:59;41.21;39.92;42.35;;
40465;Laerm;30489;48.982;8.394;2023-08-21T10:29:09;41.04;39.81;42.22;;
40465;Laerm;30489;48.982;8.394;2023-08-21T10:33:45;41.10;39.58;42.35;;
40465;Laerm;30489;48.982;8.394;2023-08-21T10:35:55;41.10;39.46;42.41;;
40465;Laerm;30489;48.982;8.394;2023-08-21T10:38:13;41.09;39.34;42.16;;
40465;Laerm;30489;48.982;8.394;2023-08-21T10:40:24;41.06;39.46;42.29;;
40465;Laerm;30489;48.982;8.394;2023-08-21T10:42:38;41.19;39.46;42.47;;
40465;Laerm;30489;48.982;8.394;2023-08-21T10:44:50;41.17;39.92;42.35;;
40465;Laerm;30489;48.982;8.394;2023-08-21T10:49:36;41.31;40.03;42.53;;
40465;Laerm;30489;48.982;8.394;2023-08-21T10:51:46;41.41;40.13;42.76;;
40465;Laerm;30489;48.982;8.394;2023-08-21T10:54:10;41.46;40.13;42.76;;
40465;Laerm;30489;48.982;8.394;2023-08-21T10:56:20;41.49;40.13;43.09;;
40465;Laerm;30489;48.982;8.394;2023-08-21T10:58:43;41.37;39.70;42.59;;
40465;Laerm;30489;48.982;8.394;2023-08-21T11:00:57;41.32;39.92;42.71;;
40465;Laerm;30489;48.982;8.394;2023-08-21T11:03:08;41.24;39.81;42.47;;
40465;Laerm;30489;48.982;8.394;2023-08-21T11:05:18;41.29;39.81;42.35;;
40465;Laerm;30489;48.982;8.394;2023-08-21T11:07:28;41.47;40.23;42.82;;
40465;Laerm;30489;48.982;8.394;2023-08-21T11:09:39;41.36;40.13;42.35;;
40465;Laerm;30489;48.982;8.394;2023-08-21T11:11:49;41.36;39.68;42.71;;
40465;Laerm;30489;48.982;8.394;2023-08-21T11:14:00;41.48;40.13;42.71;;
40465;Laerm;30489;48.982;8.394;2023-08-21T11:16:12;41.39;40.03;42.53;;
40465;Laerm;30489;48.982;8.394;2023-08-21T11:18:22;41.32;39.92;42.36;;
40465;Laerm;30489;48.982;8.394;2023-08-21T11:20:39;41.31;39.92;42.35;;
40465;Laerm;30489;48.982;8.394;2023-08-21T11:22:49;41.37;40.03;42.47;;
40465;Laerm;30489;48.982;8.394;2023-08-21T11:24:59;41.51;40.03;42.65;;
40465;Laerm;30489;48.982;8.394;2023-08-21T11:27:10;41.39;40.03;42.59;;
40465;Laerm;30489;48.982;8.394;2023-08-21T11:29:22;41.38;40.13;42.53;;
40465;Laerm;30489;48.982;8.394;2023-08-21T11:31:32;41.36;40.13;42.47;;
40465;Laerm;30489;48.982;8.394;2023-08-21T11:33:48;41.41;40.03;42.53;;
40465;Laerm;30489;48.982;8.394;2023-08-21T11:35:59;41.37;39.92;42.71;;
40465;Laerm;30489;48.982;8.394;2023-08-21T11:38:14;41.35;39.70;42.53;;
40465;Laerm;30489;48.982;8.394;2023-08-21T11:40:24;41.37;40.03;42.53;;
40465;Laerm;30489;48.982;8.394;2023-08-21T11:42:35;41.41;40.03;42.59;;
40465;Laerm;30489;48.982;8.394;2023-08-21T11:44:51;41.42;40.03;42.53;;
40465;Laerm;30489;48.982;8.394;2023-08-21T11:47:02;41.42;40.03;42.59;;
40465;Laerm;30489;48.982;8.394;2023-08-21T11:49:13;41.41;40.03;42.47;;
40465;Laerm;30489;48.982;8.394;2023-08-21T11:51:24;41.45;40.13;42.71;;
40465;Laerm;30489;48.982;8.394;2023-08-21T11:53:35;41.43;40.03;45.33;;
40465;Laerm;30489;48.982;8.394;2023-08-21T11:55:46;41.47;40.03;42.59;;
40465;Laerm;30489;48.982;8.394;2023-08-21T11:57:56;41.48;39.81;42.71;;
40465;Laerm;30489;48.982;8.394;2023-08-21T12:00:08;41.48;39.92;42.41;;
40465;Laerm;30489;48.982;8.394;2023-08-21T12:02:22;41.53;39.81;42.59;;
40465;Laerm;30489;48.982;8.394;2023-08-21T12:04:33;41.49;40.03;42.76;;
40465;Laerm;30489;48.982;8.394;2023-08-21T12:06:46;41.50;40.23;42.53;;
40465;Laerm;30489;48.982;8.394;2023-08-21T12:08:56;41.52;40.33;42.65;;
40465;Laerm;30489;48.982;8.394;2023-08-21T12:11:07;41.55;40.03;42.76;;
40465;Laerm;30489;48.982;8.394;2023-08-21T12:13:18;41.57;40.33;42.59;;
40465;Laerm;30489;48.982;8.394;2023-08-21T12:15:28;41.52;40.13;42.76;;
40465;Laerm;30489;48.982;8.394;2023-08-21T12:17:38;41.51;40.23;42.65;;
40465;Laerm;30489;48.982;8.394;2023-08-21T12:19:48;41.55;39.81;42.59;;
40465;Laerm;30489;48.982;8.394;2023-08-21T12:21:58;41.75;40.53;42.82;;
40465;Laerm;30489;48.982;8.394;2023-08-21T12:24:08;41.76;40.33;42.88;;